createdAt,value
2018-02-16T00:01:27.476Z,96362.44
2018-02-16T00:03:55.108Z,96361.86
2018-02-16T00:06:22.662Z,96357.84
2018-02-16T00:08:50.254Z,96358.63
2018-02-16T00:11:17.856Z,96354.75
2018-02-16T00:13:45.439Z,96348.17
2018-02-16T00:16:13.265Z,96345.37
2018-02-16T00:18:40.952Z,96338.00
2018-02-16T00:21:09.239Z,96332.95
2018-02-16T00:23:36.872Z,96348.65
2018-02-16T00:26:04.512Z,96349.05
2018-02-16T00:28:32.079Z,96350.80
2018-02-16T00:30:59.670Z,96350.76
2018-02-16T00:33:27.310Z,96340.27
2018-02-16T00:35:54.906Z,96341.98
2018-02-16T00:38:22.505Z,96347.47
2018-02-16T00:40:50.114Z,96342.87
2018-02-16T00:43:17.945Z,96346.66
2018-02-16T00:45:45.570Z,96344.16
2018-02-16T00:48:13.171Z,96342.19
2018-02-16T00:50:41.011Z,96340.36
2018-02-16T00:53:09.038Z,96350.96
2018-02-16T00:55:36.659Z,96348.38
2018-02-16T00:58:04.242Z,96352.55
2018-02-16T01:00:31.816Z,96353.47
2018-02-16T01:02:59.388Z,96343.96
2018-02-16T01:05:28.410Z,96343.88
2018-02-16T01:07:56.021Z,96345.91
2018-02-16T01:10:23.587Z,96340.13
2018-02-16T01:12:51.188Z,96338.62
2018-02-16T01:15:18.886Z,96339.57
2018-02-16T01:17:46.749Z,96339.72
2018-02-16T01:20:14.504Z,96338.73
2018-02-16T01:22:42.092Z,96332.12
2018-02-16T01:25:09.936Z,96334.63
2018-02-16T01:27:37.616Z,96338.41
2018-02-16T01:30:05.221Z,96341.29
2018-02-16T01:32:32.765Z,96342.09
2018-02-16T01:35:00.393Z,96336.50
2018-02-16T01:37:28.005Z,96337.09
2018-02-16T01:39:55.589Z,96328.42
2018-02-16T01:42:23.195Z,96331.20
2018-02-16T01:44:52.000Z,96327.15
2018-02-16T01:47:19.563Z,96324.66
2018-02-16T01:52:45.099Z,96323.86
2018-02-16T01:55:13.059Z,96317.20
2018-02-16T01:57:40.754Z,96314.59
2018-02-16T02:00:08.413Z,96301.50
2018-02-16T02:02:36.199Z,96293.52
2018-02-16T02:05:03.962Z,96288.78
2018-02-16T02:07:31.552Z,96274.27
2018-02-16T02:09:59.183Z,96280.59
2018-02-16T02:12:26.758Z,96275.36
2018-02-16T02:14:54.336Z,96281.11
2018-02-16T02:17:21.912Z,96275.65
2018-02-16T02:19:49.546Z,96279.41
2018-02-16T02:22:17.336Z,96272.36
2018-02-16T02:24:44.910Z,96266.37
2018-02-16T02:27:13.672Z,96261.83
2018-02-16T02:29:41.296Z,96259.05
2018-02-16T02:32:09.172Z,96249.52
2018-02-16T02:34:36.766Z,96264.58
2018-02-16T02:37:04.701Z,96271.09
2018-02-16T02:39:34.320Z,96268.23
2018-02-16T02:42:01.919Z,96272.11
2018-02-16T02:44:29.980Z,96273.34
2018-02-16T02:46:57.930Z,96272.81
2018-02-16T02:49:25.511Z,96274.07
2018-02-16T02:51:53.311Z,96271.61
2018-02-16T02:54:21.463Z,96269.72
2018-02-16T02:56:49.277Z,96260.48
2018-02-16T02:59:17.342Z,96267.07
2018-02-16T03:01:44.951Z,96264.83
2018-02-16T03:04:12.593Z,96266.44
2018-02-16T03:06:40.954Z,96269.18
2018-02-16T03:09:08.526Z,96266.67
2018-02-16T03:11:36.107Z,96274.67
2018-02-16T03:14:03.743Z,96275.69
2018-02-16T03:16:31.355Z,96270.39
2018-02-16T03:18:58.995Z,96274.36
2018-02-16T03:21:27.887Z,96274.99
2018-02-16T03:23:55.524Z,96270.78
2018-02-16T03:26:23.165Z,96269.48
2018-02-16T03:28:50.740Z,96270.05
2018-02-16T03:31:20.156Z,96278.83
2018-02-16T03:33:54.375Z,96284.30
2018-02-16T03:36:24.649Z,96284.01
2018-02-16T03:38:52.257Z,96289.39
2018-02-16T03:41:20.098Z,96290.04
2018-02-16T03:43:47.656Z,96293.87
2018-02-16T03:46:15.271Z,96285.98
2018-02-16T03:48:42.845Z,96290.27
2018-02-16T03:51:10.728Z,96278.75
2018-02-16T03:53:38.542Z,96282.44
2018-02-16T03:56:06.133Z,96286.70
2018-02-16T03:58:36.022Z,96278.03
2018-02-16T04:01:03.606Z,96282.98
2018-02-16T04:03:31.516Z,96272.95
2018-02-16T04:05:59.079Z,96274.29
2018-02-16T04:08:26.693Z,96269.33
2018-02-16T04:10:54.270Z,96269.75
2018-02-16T04:13:21.835Z,96278.27
2018-02-16T04:15:49.419Z,96278.29
2018-02-16T04:18:16.967Z,96280.75
2018-02-16T04:20:44.538Z,96277.05
2018-02-16T04:23:12.830Z,96276.34
2018-02-16T04:25:40.387Z,96274.93
2018-02-16T04:28:08.019Z,96278.91
2018-02-16T04:30:35.592Z,96278.08
2018-02-16T04:33:03.187Z,96272.31
2018-02-16T04:35:30.783Z,96279.97
2018-02-16T04:37:59.167Z,96275.06
2018-02-16T04:40:26.815Z,96278.44
2018-02-16T04:42:54.482Z,96270.99
2018-02-16T04:45:22.068Z,96281.21
2018-02-16T04:47:49.612Z,96283.70
2018-02-16T04:50:17.209Z,96292.80
2018-02-16T04:52:44.781Z,96286.83
2018-02-16T04:55:13.225Z,96297.88
2018-02-16T04:57:40.884Z,96296.53
2018-02-16T05:00:09.377Z,96306.28
2018-02-16T05:02:36.925Z,96309.85
2018-02-16T05:05:04.542Z,96313.59
2018-02-16T05:07:32.674Z,96313.58
2018-02-16T05:10:00.282Z,96306.89
2018-02-16T05:12:27.857Z,96311.81
2018-02-16T05:14:55.413Z,96322.84
2018-02-16T05:17:23.185Z,96319.96
2018-02-16T05:19:50.956Z,96334.36
2018-02-16T05:22:18.869Z,96339.57
2018-02-16T05:24:46.409Z,96354.89
2018-02-16T05:27:14.801Z,96360.15
2018-02-16T05:29:43.380Z,96377.03
2018-02-16T05:32:11.008Z,96383.45
2018-02-16T05:34:38.580Z,96384.28
2018-02-16T05:37:06.645Z,96386.25
2018-02-16T05:39:34.565Z,96391.20
2018-02-16T05:42:02.133Z,96398.72
2018-02-16T05:44:29.714Z,96398.72
2018-02-16T05:46:57.289Z,96412.56
2018-02-16T05:49:25.133Z,96423.50
2018-02-16T05:51:52.702Z,96427.22
2018-02-16T05:54:20.296Z,96436.47
2018-02-16T05:56:47.860Z,96446.00
2018-02-16T05:59:15.413Z,96452.45
2018-02-16T06:01:43.056Z,96455.05
2018-02-16T06:04:10.785Z,96461.12
2018-02-16T06:06:38.373Z,96460.55
2018-02-16T06:09:06.219Z,96459.42
2018-02-16T06:11:34.252Z,96465.80
2018-02-16T06:14:01.805Z,96471.28
2018-02-16T06:16:29.365Z,96464.48
2018-02-16T06:18:56.940Z,96466.30
2018-02-16T06:21:24.639Z,96474.59
2018-02-16T06:23:52.320Z,96481.14
2018-02-16T06:26:19.822Z,96486.77
2018-02-16T06:28:47.413Z,96497.88
2018-02-16T06:31:15.943Z,96515.05
2018-02-16T06:33:43.480Z,96522.45
2018-02-16T06:36:11.273Z,96528.07
2018-02-16T06:38:38.862Z,96527.67
2018-02-16T06:41:06.763Z,96543.13
2018-02-16T06:43:34.579Z,96540.94
2018-02-16T06:46:02.162Z,96544.61
2018-02-16T06:48:29.749Z,96552.53
2018-02-16T06:50:57.307Z,96556.94
2018-02-16T06:53:24.877Z,96552.98
2018-02-16T06:55:52.437Z,96551.55
2018-02-16T06:58:20.200Z,96559.27
2018-02-16T07:00:47.878Z,96558.98
2018-02-16T07:03:19.964Z,96565.55
2018-02-16T07:05:49.495Z,96572.74
2018-02-16T07:08:17.075Z,96572.16
2018-02-16T07:10:46.236Z,96565.66
2018-02-16T07:13:13.817Z,96572.13
2018-02-16T07:15:54.028Z,96575.56
2018-02-16T07:18:21.660Z,96574.36
2018-02-16T07:20:52.017Z,96589.41
2018-02-16T07:23:19.728Z,96598.20
2018-02-16T07:25:47.289Z,96601.58
2018-02-16T07:28:14.927Z,96599.95
2018-02-16T07:30:42.535Z,96593.27
2018-02-16T07:33:10.368Z,96613.66
2018-02-16T07:35:38.464Z,96625.98
2018-02-16T07:38:06.048Z,96620.76
2018-02-16T07:40:33.618Z,96615.12
2018-02-16T07:43:01.220Z,96609.12
2018-02-16T07:45:29.793Z,96606.65
2018-02-16T07:48:00.056Z,96624.66
2018-02-16T07:50:29.656Z,96632.77
2018-02-16T07:52:59.949Z,96635.45
2018-02-16T07:55:28.912Z,96630.49
2018-02-16T07:57:56.711Z,96640.42
2018-02-16T08:00:24.426Z,96647.62
2018-02-16T08:02:52.156Z,96656.66
2018-02-16T08:05:19.735Z,96663.27
2018-02-16T08:07:47.311Z,96652.00
2018-02-16T08:10:15.013Z,96651.20
2018-02-16T08:12:42.602Z,96661.92
2018-02-16T08:15:11.459Z,96658.56
2018-02-16T08:17:42.093Z,96662.27
2018-02-16T08:20:09.803Z,96664.63
2018-02-16T08:22:37.365Z,96656.93
2018-02-16T08:25:09.290Z,96668.98
2018-02-16T08:27:36.997Z,96673.06
2018-02-16T08:30:04.567Z,96668.97
2018-02-16T08:32:32.207Z,96672.39
2018-02-16T08:35:00.125Z,96676.78
2018-02-16T08:37:28.255Z,96680.14
2018-02-16T08:39:55.848Z,96681.11
2018-02-16T08:42:24.161Z,96670.31
2018-02-16T08:44:51.750Z,96671.93
2018-02-16T08:47:19.535Z,96676.47
2018-02-16T08:49:47.189Z,96683.56
2018-02-16T08:52:14.761Z,96678.77
2018-02-16T08:54:42.413Z,96678.97
2018-02-16T08:57:11.907Z,96676.08
2018-02-16T08:59:39.577Z,96680.05
2018-02-16T09:02:07.238Z,96688.33
2018-02-16T09:04:35.242Z,96684.48
2018-02-16T09:07:02.934Z,96689.94
2018-02-16T09:09:32.144Z,96698.14
2018-02-16T09:11:59.847Z,96694.98
2018-02-16T09:14:27.751Z,96690.78
2018-02-16T09:16:56.621Z,96694.16
2018-02-16T09:19:25.122Z,96694.33
2018-02-16T09:21:53.628Z,96683.84
2018-02-16T09:24:21.624Z,96688.78
2018-02-16T09:26:49.383Z,96685.22
2018-02-16T09:29:18.093Z,96715.69
2018-02-16T09:31:46.058Z,96734.30
2018-02-16T09:34:13.868Z,96735.28
2018-02-16T09:36:42.120Z,96733.55
2018-02-16T09:39:11.550Z,96741.87
2018-02-16T09:41:39.335Z,96764.53
2018-02-16T09:44:06.904Z,96758.99
2018-02-16T09:46:34.522Z,96769.00
2018-02-16T09:49:02.178Z,96781.78
2018-02-16T09:51:30.465Z,96791.75
2018-02-16T09:53:58.057Z,96799.00
2018-02-16T09:56:25.641Z,96786.30
2018-02-16T09:58:53.226Z,96788.73
2018-02-16T10:01:22.143Z,96791.31
2018-02-16T10:03:49.789Z,96782.25
2018-02-16T10:06:17.404Z,96794.30
2018-02-16T10:08:45.310Z,96799.42
2018-02-16T10:11:12.933Z,96806.84
2018-02-16T10:13:40.578Z,96814.70
2018-02-16T10:16:08.314Z,96810.16
2018-02-16T10:18:36.700Z,96816.98
2018-02-16T10:21:04.345Z,96813.02
2018-02-16T10:23:31.942Z,96804.94
2018-02-16T10:25:59.582Z,96804.68
2018-02-16T10:28:27.545Z,96799.63
2018-02-16T10:30:55.980Z,96805.58
2018-02-16T10:33:23.534Z,96809.09
2018-02-16T10:35:51.133Z,96811.35
2018-02-16T10:38:18.765Z,96811.28
2018-02-16T10:40:48.119Z,96810.28
2018-02-16T10:43:15.912Z,96808.27
2018-02-16T10:45:44.155Z,96814.10
2018-02-16T10:48:11.814Z,96819.75
2018-02-16T10:50:41.656Z,96812.28
2018-02-16T10:53:09.666Z,96818.22
2018-02-16T10:55:39.205Z,96816.73
2018-02-16T10:58:06.839Z,96808.27
2018-02-16T11:00:41.946Z,96808.64
2018-02-16T11:03:15.021Z,96811.48
2018-02-16T11:05:57.920Z,96806.53
2018-02-16T11:08:39.321Z,96811.38
2018-02-16T11:11:09.038Z,96807.32
2018-02-16T11:13:37.402Z,96814.89
2018-02-16T11:16:06.060Z,96823.36
2018-02-16T11:18:37.971Z,96817.44
2018-02-16T11:31:47.816Z,96840.31
2018-02-16T11:34:17.253Z,96836.80
2018-02-16T11:36:45.728Z,96840.97
2018-02-16T11:39:13.993Z,96841.66
2018-02-16T11:41:45.659Z,96843.55
2018-02-16T11:44:13.554Z,96847.52
2018-02-16T11:46:41.317Z,96850.50
2018-02-16T11:49:09.275Z,96844.13
2018-02-16T11:51:39.044Z,96846.13
2018-02-16T11:54:07.550Z,96848.89
2018-02-16T11:56:37.263Z,96852.36
2018-02-16T11:59:06.672Z,96850.31
2018-02-16T12:01:35.495Z,96850.16
2018-02-16T12:04:03.541Z,96846.84
2018-02-16T12:06:31.162Z,96842.00
2018-02-16T12:08:58.787Z,96833.41
2018-02-16T12:11:26.573Z,96836.39
2018-02-16T12:13:54.219Z,96832.72
2018-02-16T12:16:23.390Z,96825.80
2018-02-16T12:18:50.978Z,96831.77
2018-02-16T12:21:18.575Z,96829.06
2018-02-16T12:23:46.169Z,96827.13
2018-02-16T12:26:13.758Z,96839.39
2018-02-16T12:28:41.372Z,96841.93
2018-02-16T12:31:09.583Z,96848.44
2018-02-16T12:33:37.190Z,96840.32
2018-02-16T12:36:05.037Z,96819.97
2018-02-16T12:38:32.582Z,96839.17
2018-02-16T12:41:03.893Z,96835.75
2018-02-16T12:43:32.565Z,96835.02
2018-02-16T12:46:00.185Z,96833.25
2018-02-16T12:48:27.788Z,96833.36
2018-02-16T12:50:55.709Z,96842.47
2018-02-16T12:53:23.882Z,96848.52
2018-02-16T12:55:51.522Z,96851.98
2018-02-16T12:58:19.096Z,96850.61
2018-02-16T13:00:47.104Z,96847.25
2018-02-16T13:03:17.313Z,96850.09
2018-02-16T13:05:45.010Z,96853.13
2018-02-16T13:08:12.676Z,96847.16
2018-02-16T13:10:40.278Z,96855.80
2018-02-16T13:13:08.523Z,96853.63
2018-02-16T13:15:36.534Z,96861.81
2018-02-16T13:18:04.448Z,96867.16
2018-02-16T13:20:32.342Z,96869.37
2018-02-16T13:22:59.970Z,96874.72
2018-02-16T13:25:27.539Z,96873.58
2018-02-16T13:27:55.410Z,96872.89
2018-02-16T13:30:23.300Z,96879.61
2018-02-16T13:32:50.872Z,96883.31
2018-02-16T13:35:18.525Z,96878.97
2018-02-16T13:37:46.141Z,96870.07
2018-02-16T13:40:13.825Z,96867.40
2018-02-16T13:42:41.480Z,96865.62
2018-02-16T13:45:09.209Z,96868.98
2018-02-16T13:47:37.068Z,96876.61
2018-02-16T13:50:04.724Z,96889.91
2018-02-16T13:52:32.323Z,96891.09
2018-02-16T13:55:00.426Z,96884.91
2018-02-16T13:57:29.033Z,96886.14
2018-02-16T13:59:56.655Z,96886.49
2018-02-16T14:02:24.903Z,96893.84
2018-02-16T14:04:52.498Z,96893.27
2018-02-16T14:07:20.187Z,96898.66
2018-02-16T14:09:47.827Z,96904.28
2018-02-16T14:12:15.852Z,96914.16
2018-02-16T14:14:43.491Z,96899.75
2018-02-16T14:17:12.339Z,96909.19
2018-02-16T14:19:39.998Z,96909.88
2018-02-16T14:22:07.664Z,96910.12
2018-02-16T14:24:35.271Z,96910.47
2018-02-16T14:27:03.642Z,96909.09
2018-02-16T14:29:31.398Z,96909.02
2018-02-16T14:31:59.012Z,96908.94
2018-02-16T14:34:26.602Z,96913.86
2018-02-16T14:36:54.196Z,96909.45
2018-02-16T14:39:21.832Z,96911.64
2018-02-16T14:41:49.530Z,96909.44
2018-02-16T14:44:17.177Z,96913.07
2018-02-16T14:46:44.809Z,96913.44
2018-02-16T14:49:13.072Z,96915.38
2018-02-16T14:51:40.649Z,96913.66
2018-02-16T14:54:08.387Z,96915.01
2018-02-16T14:56:36.117Z,96911.45
2018-02-16T14:59:03.734Z,96914.33
2018-02-16T15:01:31.724Z,96909.16
2018-02-16T15:03:59.353Z,96907.59
2018-02-16T15:06:27.403Z,96912.75
2018-02-16T15:08:55.015Z,96919.14
2018-02-16T15:11:24.412Z,96930.70
2018-02-16T15:13:52.073Z,96925.16
2018-02-16T15:16:19.661Z,96925.09
2018-02-16T15:18:47.242Z,96924.97
2018-02-16T15:21:16.891Z,96929.52
2018-02-16T15:23:45.423Z,96932.33
2018-02-16T15:26:13.060Z,96934.62
2018-02-16T15:28:40.674Z,96926.70
2018-02-16T15:31:17.120Z,96934.76
2018-02-16T15:33:45.108Z,96938.80
2018-02-16T15:36:12.708Z,96939.23
2018-02-16T15:38:40.341Z,96943.05
2018-02-16T15:41:09.747Z,96944.64
2018-02-16T15:43:39.741Z,96947.06
2018-02-16T15:46:07.391Z,96946.17
2018-02-16T15:48:36.818Z,96951.40
2018-02-16T15:51:06.578Z,96950.56
2018-02-16T15:53:34.193Z,96950.92
2018-02-16T15:56:02.083Z,96954.53
2018-02-16T15:58:29.689Z,96957.81
2018-02-16T16:00:59.300Z,96960.63
2018-02-16T16:03:28.461Z,96964.30
2018-02-16T16:05:56.467Z,96964.94
2018-02-16T16:08:24.069Z,96970.74
2018-02-16T16:10:51.997Z,96963.49
2018-02-16T16:13:19.903Z,96960.02
2018-02-16T16:15:47.610Z,96968.67
2018-02-16T16:18:15.390Z,96966.62
2018-02-16T16:20:43.243Z,96970.67
2018-02-16T16:23:11.545Z,96967.72
2018-02-16T16:25:39.481Z,96968.47
2018-02-16T16:28:07.142Z,96966.81
2018-02-16T16:30:34.777Z,96961.20
2018-02-16T16:33:02.772Z,96977.07
2018-02-16T16:35:31.067Z,96981.55
2018-02-16T16:38:02.364Z,96984.49
2018-02-16T16:40:36.218Z,96990.41
2018-02-16T16:43:09.748Z,96988.78
2018-02-16T16:45:37.767Z,96994.57
2018-02-16T16:48:05.676Z,96998.75
2018-02-16T16:50:33.708Z,96996.63
2018-02-16T16:53:01.739Z,96998.85
2018-02-16T16:55:29.723Z,96999.09
2018-02-16T16:57:57.319Z,97002.91
2018-02-16T17:00:24.987Z,97007.73
2018-02-16T17:02:52.628Z,97004.84
2018-02-16T17:05:21.220Z,97011.13
2018-02-16T17:07:49.294Z,97009.08
2018-02-16T17:10:22.096Z,97010.04
2018-02-16T17:12:55.055Z,97006.73
2018-02-16T17:15:28.467Z,97009.25
2018-02-16T17:18:03.055Z,97002.23
2018-02-16T17:20:38.573Z,97011.57
2018-02-16T17:23:12.679Z,97024.86
2018-02-16T17:25:45.839Z,97028.36
2018-02-16T17:28:18.084Z,97030.33
2018-02-16T17:30:46.150Z,97029.06
2018-02-16T17:33:14.106Z,97027.59
2018-02-16T17:35:42.105Z,97031.67
2018-02-16T17:38:17.194Z,97029.08
2018-02-16T17:40:49.742Z,97030.38
2018-02-16T17:43:18.354Z,97034.92
2018-02-16T17:45:46.021Z,97035.29
2018-02-16T17:48:18.666Z,97038.19
2018-02-16T17:50:46.248Z,97033.19
2018-02-16T17:53:14.250Z,97026.38
2018-02-16T17:55:42.111Z,97034.45
2018-02-16T17:58:09.751Z,97041.52
2018-02-16T18:00:37.365Z,97039.10
2018-02-16T18:03:05.903Z,97031.97
2018-02-16T18:05:33.735Z,97035.53
2018-02-16T18:08:01.485Z,97037.42
2018-02-16T18:10:29.325Z,97030.37
2018-02-16T18:12:56.993Z,97029.16
2018-02-16T18:15:24.662Z,97028.42
2018-02-16T18:17:52.331Z,97034.14
2018-02-16T18:20:20.204Z,97030.22
2018-02-16T18:22:47.832Z,97027.28
2018-02-16T18:25:15.416Z,97027.39
2018-02-16T18:27:43.067Z,97025.34
2018-02-16T18:30:11.379Z,97024.72
2018-02-16T18:32:39.440Z,97015.87
2018-02-16T18:35:07.728Z,97025.03
2018-02-16T18:37:35.365Z,97030.16
2018-02-16T18:40:02.975Z,97021.83
2018-02-16T18:42:30.609Z,97023.44
2018-02-16T18:44:58.257Z,97027.23
2018-02-16T18:47:26.133Z,97025.50
2018-02-16T18:49:53.799Z,97025.63
2018-02-16T18:52:21.414Z,97024.31
2018-02-16T18:54:49.109Z,97018.92
2018-02-16T18:57:17.295Z,97022.78
2018-02-16T18:59:44.965Z,97019.64
2018-02-16T19:05:01.605Z,97024.91
2018-02-16T19:10:10.146Z,97026.16
2018-02-16T19:12:42.059Z,97027.19
2018-02-16T19:15:15.355Z,97028.09
2018-02-16T19:17:47.247Z,97019.64
2018-02-16T19:20:16.324Z,97017.85
2018-02-16T19:22:49.334Z,97020.14
2018-02-16T19:25:22.964Z,97027.34
2018-02-16T19:27:56.685Z,97026.55
2018-02-16T19:30:32.035Z,97030.19
2018-02-16T19:33:04.915Z,97028.02
2018-02-16T19:35:38.375Z,97028.66
2018-02-16T19:38:06.269Z,97027.57
2018-02-16T19:40:41.266Z,97017.95
2018-02-16T19:43:13.021Z,97025.31
2018-02-16T19:45:47.073Z,97019.73
2018-02-16T19:48:22.057Z,97028.63
2018-02-16T19:50:49.720Z,97030.34
2018-02-16T19:53:23.699Z,97027.61
2018-02-16T19:55:57.170Z,97034.92
2018-02-16T19:58:24.969Z,97037.06
2018-02-16T20:00:54.508Z,97039.72
2018-02-16T20:03:22.502Z,97042.50
2018-02-16T20:05:54.053Z,97044.36
2018-02-16T20:08:29.301Z,97040.22
2018-02-16T20:11:01.641Z,97042.61
2018-02-16T20:13:35.485Z,97037.59
2018-02-16T20:16:08.289Z,97041.52
2018-02-16T20:21:14.552Z,97039.42
2018-02-16T20:23:46.943Z,97035.73
2018-02-16T20:26:19.951Z,97036.35
2018-02-16T20:28:47.564Z,97034.09
2018-02-16T20:31:15.328Z,97037.20
2018-02-16T20:33:46.119Z,97041.41
2018-02-16T20:36:18.309Z,97039.89
2018-02-16T20:38:52.668Z,97027.09
2018-02-16T20:41:28.711Z,97039.45
2018-02-16T20:43:56.696Z,97026.05
2018-02-16T20:46:27.597Z,97026.59
2018-02-16T20:48:55.215Z,97022.95
2018-02-16T20:51:23.630Z,97021.95
2018-02-16T20:53:51.498Z,97023.81
2018-02-16T20:56:24.053Z,97016.67
2018-02-16T20:58:51.985Z,97015.20
2018-02-16T21:01:19.616Z,97014.64
2018-02-16T21:03:47.716Z,97018.06
2018-02-16T21:06:15.570Z,97018.72
2018-02-16T21:08:48.306Z,97028.15
2018-02-16T21:11:16.993Z,97028.87
2018-02-16T21:13:47.689Z,97031.45
2018-02-16T21:16:20.694Z,97037.28
2018-02-16T21:18:48.296Z,97033.47
2018-02-16T21:21:23.494Z,97040.53
2018-02-16T21:23:52.896Z,97042.17
2018-02-16T21:26:25.216Z,97038.23
2018-02-16T21:28:53.426Z,97036.27
2018-02-16T21:31:22.173Z,97040.14
2018-02-16T21:33:50.020Z,97036.17
2018-02-16T21:36:19.004Z,97033.22
2018-02-16T21:38:46.701Z,97030.78
2018-02-16T21:41:14.765Z,97030.07
2018-02-16T21:43:42.390Z,97020.91
2018-02-16T21:46:10.262Z,97025.45
2018-02-16T21:48:38.055Z,97028.69
2018-02-16T21:51:06.287Z,97035.47
2018-02-16T21:53:34.695Z,97029.34
2018-02-16T21:56:02.413Z,97036.56
2018-02-16T21:58:30.070Z,97033.08
2018-02-16T22:00:57.792Z,97037.11
2018-02-16T22:03:25.436Z,97031.97
2018-02-16T22:05:53.090Z,97027.93
2018-02-16T22:08:20.731Z,97032.62
2018-02-16T22:10:48.352Z,97036.15
2018-02-16T22:13:15.963Z,97037.67
2018-02-16T22:15:43.596Z,97036.07
2018-02-16T22:18:11.405Z,97042.59
2018-02-16T22:20:39.038Z,97047.48
2018-02-16T22:23:06.766Z,97045.39
2018-02-16T22:25:34.466Z,97041.84
2018-02-16T22:28:02.140Z,97036.30
2018-02-16T22:30:29.797Z,97033.63
2018-02-16T22:32:57.446Z,97036.80
2018-02-16T22:35:25.115Z,97032.02
2018-02-16T22:37:52.725Z,97027.31
2018-02-16T22:40:20.535Z,97029.45
2018-02-16T22:42:52.193Z,97024.03
2018-02-16T22:45:20.184Z,97012.65
2018-02-16T22:47:47.832Z,97013.45
2018-02-16T22:50:17.282Z,97011.38
2018-02-16T22:52:45.097Z,97026.52
2018-02-16T22:55:13.531Z,97008.86
2018-02-16T22:57:41.151Z,97008.91
2018-02-16T23:00:08.839Z,97006.84
2018-02-16T23:02:36.441Z,97011.05
2018-02-16T23:05:05.138Z,97005.09
2018-02-16T23:07:32.973Z,97003.20
2018-02-16T23:10:00.925Z,97010.52
2018-02-16T23:12:28.814Z,97017.82
2018-02-16T23:14:57.165Z,97016.98
2018-02-16T23:17:24.802Z,97018.11
2018-02-16T23:19:52.416Z,97011.64
2018-02-16T23:22:20.079Z,97016.77
2018-02-16T23:24:47.666Z,97012.64
2018-02-16T23:27:16.686Z,97007.74
2018-02-16T23:29:44.408Z,97013.08
2018-02-16T23:32:12.176Z,97007.23
2018-02-16T23:34:39.915Z,97003.63
2018-02-16T23:37:08.053Z,97017.81
2018-02-16T23:39:35.850Z,97011.39
2018-02-16T23:42:03.720Z,97009.83
2018-02-16T23:44:31.380Z,97010.12
2018-02-16T23:47:04.829Z,97006.79
2018-02-16T23:49:32.429Z,97008.63
2018-02-16T23:52:00.142Z,97008.91
2018-02-16T23:54:30.029Z,97013.53
2018-02-16T23:56:58.114Z,97016.16
2018-02-16T23:59:25.782Z,97018.68
